Time;durP1;ratioP1;P1;durP2;ratioP2;P2;SDS_P1;SDS_P2;PMS_P1;PMS_P2;Temp;Humidity;BMP_temperature;BMP_pressure;BME280_temperature;BME280_humidity;BME280_pressure;Samples;Min_cycle;Max_cycle;Signal;HPM_P1;HPM_P2
2023/12/28 00:01:41;;;;;;;5.07;2.30;;;6.70;59.80;;;2.74;79.21;95791.66;5009096;28;20135;-54
2023/12/28 00:04:06;;;;;;;4.20;2.45;;;6.90;59.70;;;2.88;79.20;95795.84;5010561;28;20025;-53
2023/12/28 00:06:32;;;;;;;5.10;2.25;;;7.10;59.50;;;3.03;77.52;95784.22;5009383;28;20025;-51
2023/12/28 00:09:00;;;;;;;4.10;2.42;;;7.20;59.20;;;3.12;76.73;95793.47;5009040;28;20037;-56
2023/12/28 00:11:26;;;;;;;2.85;2.17;;;7.40;59.00;;;3.21;76.48;95793.00;5009734;28;20147;-53
2023/12/28 00:13:52;;;;;;;4.57;2.58;;;7.50;58.60;;;3.21;75.75;95800.13;5009209;28;20116;-54
2023/12/28 00:16:17;;;;;;;4.30;2.50;;;7.60;58.40;;;3.19;75.99;95807.41;5010316;28;20056;-50
2023/12/28 00:18:43;;;;;;;2.55;2.00;;;7.70;58.10;;;3.26;74.81;95802.91;5009331;28;20457;-53
2023/12/28 00:21:09;;;;;;;4.88;2.10;;;7.70;58.00;;;3.52;73.30;95809.81;5009186;28;20041;-53
2023/12/28 00:23:35;;;;;;;2.83;1.88;;;7.80;57.80;;;3.63;72.08;95818.84;5009981;28;20083;-53
2023/12/28 00:26:01;;;;;;;3.97;2.10;;;7.90;57.70;;;3.63;72.67;95808.31;5008021;28;20021;-52
2023/12/28 00:28:28;;;;;;;4.40;2.10;;;8.00;57.50;;;3.61;71.74;95805.09;5009954;28;20786;-50
2023/12/28 00:30:53;;;;;;;5.05;1.88;;;8.10;57.30;;;3.59;71.69;95804.50;5008723;28;20033;-52
2023/12/28 00:33:19;;;;;;;2.88;2.30;;;8.20;57.10;;;3.54;72.42;95805.16;5010115;28;20029;-55
2023/12/28 00:35:45;;;;;;;3.35;2.00;;;8.20;56.90;;;3.47;72.46;95809.63;5009921;28;20376;-51
2023/12/28 00:38:11;;;;;;;3.17;2.22;;;8.20;56.70;;;3.36;73.29;95812.97;5024259;28;20036;-54
2023/12/28 00:40:37;;;;;;;4.35;2.20;;;8.10;56.50;;;3.34;73.23;95807.09;5009761;28;20676;-58
2023/12/28 00:43:03;;;;;;;3.65;1.95;;;8.10;56.40;;;3.35;72.59;95806.88;5008709;28;20472;-50
2023/12/28 00:45:28;;;;;;;2.67;2.15;;;8.10;56.40;;;3.36;72.52;95807.72;5009697;28;20480;-53
2023/12/28 00:47:56;;;;;;;3.90;2.45;;;8.10;56.30;;;3.40;72.16;95808.91;5008514;28;20047;-53
2023/12/28 00:50:22;;;;;;;3.60;2.10;;;8.10;56.30;;;3.37;73.00;95802.22;5009550;28;20025;-53
2023/12/28 00:52:48;;;;;;;3.70;2.10;;;8.10;56.20;;;3.30;73.21;95804.09;5009407;28;20104;-52
2023/12/28 00:55:14;;;;;;;3.30;2.30;;;8.10;56.20;;;3.21;73.60;95808.00;5008803;28;20466;-52
2023/12/28 00:57:40;;;;;;;3.05;2.20;;;8.00;56.10;;;3.23;72.98;95805.97;5009495;28;20025;-53
2023/12/28 01:00:07;;;;;;;2.78;1.77;;;8.00;56.00;;;3.35;71.89;95804.25;5008933;28;20065;-51
2023/12/28 01:02:33;;;;;;;5.30;2.58;;;8.00;56.00;;;3.32;73.38;95802.06;5009060;28;20135;-52
2023/12/28 01:04:59;;;;;;;3.20;2.17;;;8.00;56.00;;;3.23;72.58;95806.78;5009530;28;20112;-51
2023/12/28 01:07:24;;;;;;;3.95;2.10;;;8.00;55.90;;;3.27;72.87;95807.16;5008788;28;20054;-52
2023/12/28 01:09:50;;;;;;;4.25;2.20;;;8.00;55.90;;;3.23;73.03;95814.69;5009348;28;20113;-55
2023/12/28 01:12:17;;;;;;;2.10;1.65;;;8.00;55.90;;;2.96;74.69;95816.66;5008112;28;20017;-52
2023/12/28 01:14:43;;;;;;;2.88;2.08;;;7.90;55.60;;;2.64;76.09;95821.06;5009472;28;20033;-52
2023/12/28 01:17:08;;;;;;;3.03;1.83;;;7.80;55.50;;;2.36;77.75;95818.72;5009488;28;20036;-53
2023/12/28 01:19:34;;;;;;;4.32;2.30;;;7.70;55.40;;;2.13;79.42;95819.22;5008225;28;20083;-50
2023/12/28 01:22:00;;;;;;;3.50;2.40;;;7.60;55.30;;;2.06;79.71;95827.06;5019831;23;20057;-52
2023/12/28 01:24:26;;;;;;;3.15;2.10;;;7.40;55.40;;;2.12;78.81;95830.72;5007431;28;20418;-50
2023/12/28 01:26:52;;;;;;;4.00;2.45;;;7.30;56.20;;;2.13;79.74;95832.34;5004793;28;20025;-50
2023/12/28 01:29:18;;;;;;;3.35;2.20;;;7.20;55.80;;;2.15;79.07;95832.94;5001030;28;20468;-54
2023/12/28 01:31:44;;;;;;;3.13;2.00;;;7.20;55.90;;;2.23;78.97;95834.53;4997798;28;20056;-51
2023/12/28 01:34:09;;;;;;;2.85;1.95;;;7.20;56.10;;;2.22;79.01;95833.72;4984702;28;20050;-53
2023/12/28 01:36:35;;;;;;;7.32;2.30;;;7.20;56.10;;;1.99;80.25;95834.16;4975996;28;20053;-50
2023/12/28 01:39:01;;;;;;;3.45;2.10;;;7.10;56.00;;;1.84;80.86;95838.84;4989258;28;20073;-51
2023/12/28 01:41:27;;;;;;;3.05;2.00;;;7.10;55.90;;;1.82;80.27;95848.75;4987019;28;20079;-51
2023/12/28 01:43:53;;;;;;;3.08;1.90;;;7.00;55.90;;;1.72;81.91;95850.97;4982914;28;20040;-51
2023/12/28 01:46:21;;;;;;;3.13;1.95;;;6.90;55.90;;;1.64;82.33;95853.81;4976839;28;20112;-50
2023/12/28 01:48:50;;;;;;;4.10;2.30;;;6.80;56.00;;;1.62;82.85;95857.41;4985508;28;20068;-49
2023/12/28 01:51:17;;;;;;;3.55;2.13;;;6.70;56.10;;;1.69;82.56;95862.66;4988295;28;20026;-51
2023/12/28 01:53:47;;;;;;;4.13;2.05;;;6.70;56.30;;;1.76;82.89;95854.81;4973099;28;20535;-52
2023/12/28 01:56:14;;;;;;;2.72;1.80;;;6.70;56.50;;;1.60;83.31;95854.19;4981595;28;20026;-50
2023/12/28 01:58:44;;;;;;;3.78;2.28;;;6.70;56.40;;;1.49;84.22;95867.91;4989644;28;20045;-50
2023/12/28 02:01:11;;;;;;;5.22;2.42;;;6.60;56.30;;;1.28;85.35;95862.84;4983483;28;20034;-52
2023/12/28 02:03:38;;;;;;;4.18;2.05;;;6.50;56.30;;;1.17;86.37;95859.00;4972789;28;20092;-56
2023/12/28 02:06:07;;;;;;;3.88;2.30;;;6.40;56.30;;;1.10;87.38;95868.66;4974229;28;20037;-54
2023/12/28 02:08:34;;;;;;;2.20;2.00;;;6.30;56.30;;;0.96;88.79;95870.44;4991301;28;20132;-54
2023/12/28 02:11:00;;;;;;;2.60;1.73;;;6.30;56.40;;;0.88;89.46;95862.75;4993099;28;20087;-56
2023/12/28 02:13:26;;;;;;;3.75;2.25;;;6.20;56.50;;;0.92;89.00;95872.63;4978003;28;20476;-49
2023/12/28 02:16:09;;;;;;;2.78;2.05;;;6.00;56.60;;;0.92;89.86;95877.09;4986320;28;20033;-56
2023/12/28 02:18:45;;;;;;;3.80;2.03;;;6.00;56.90;;;0.74;91.26;95882.84;4986062;28;20026;-55
2023/12/28 02:21:14;;;;;;;2.83;2.00;;;5.90;57.00;;;0.69;92.06;95877.41;4989678;28;20029;-55
2023/12/28 02:23:48;;;;;;;4.25;2.30;;;5.80;57.10;;;0.77;92.75;95884.28;4985210;28;20575;-54
2023/12/28 02:26:17;;;;;;;7.97;2.38;;;5.80;57.20;;;0.73;92.34;95875.19;4991836;28;20611;-50
2023/12/28 02:28:45;;;;;;;4.30;2.33;;;5.70;57.30;;;0.69;92.63;95872.97;4990059;28;20567;-54
2023/12/28 02:31:32;;;;;;;3.25;2.33;;;5.70;57.40;;;0.60;93.58;95868.88;4977197;28;20037;-50
2023/12/28 02:34:10;;;;;;;3.53;2.17;;;5.60;57.50;;;0.55;93.45;95870.47;4988355;28;20018;-54
2023/12/28 02:36:44;;;;;;;3.30;2.13;;;5.60;57.60;;;0.52;94.42;95870.84;4985112;28;20029;-51
2023/12/28 02:39:16;;;;;;;2.78;1.83;;;5.50;57.70;;;0.50;94.34;95857.94;4992120;28;20379;-53
2023/12/28 02:41:46;;;;;;;3.33;2.28;;;5.50;57.80;;;0.36;95.70;95843.97;4990384;28;20040;-49
2023/12/28 02:44:13;;;;;;;4.38;2.10;;;5.40;57.90;;;0.42;95.52;95852.88;4988782;28;20033;-50
2023/12/28 02:46:39;;;;;;;3.35;2.03;;;5.40;58.00;;;0.48;95.09;95859.97;4990743;28;20106;-51
2023/12/28 02:49:05;;;;;;;4.22;2.30;;;5.40;58.20;;;0.73;93.40;95868.13;4983278;28;20101;-49
2023/12/28 02:51:30;;;;;;;3.13;1.98;;;5.40;58.30;;;0.91;93.14;95881.53;4972015;28;20076;-52
2023/12/28 02:53:56;;;;;;;5.88;2.42;;;5.50;58.50;;;0.95;91.94;95886.38;4971810;28;20022;-53
2023/12/28 02:56:22;;;;;;;4.45;2.30;;;5.50;58.50;;;0.90;92.61;95886.94;4978140;28;20422;-53
2023/12/28 02:58:48;;;;;;;6.38;2.50;;;5.50;58.40;;;0.86;92.03;95899.66;4972743;28;20043;-51
2023/12/28 03:01:14;;;;;;;3.65;2.28;;;5.60;58.50;;;0.82;92.21;95901.06;4982060;28;20404;-54
2023/12/28 03:03:39;;;;;;;4.13;2.25;;;5.50;58.50;;;0.78;93.26;95891.13;4991608;28;20413;-53
2023/12/28 03:06:05;;;;;;;4.15;1.98;;;5.60;58.50;;;0.73;94.03;95898.81;4990746;28;20033;-55
2023/12/28 03:08:31;;;;;;;5.55;2.28;;;5.60;58.50;;;0.76;93.91;95887.91;4991740;28;20115;-50
2023/12/28 03:10:57;;;;;;;3.08;2.13;;;5.60;58.50;;;0.78;93.79;95897.19;4991011;28;20065;-53
2023/12/28 03:13:23;;;;;;;4.18;2.40;;;5.60;58.50;;;0.80;93.43;95894.38;4986521;28;20538;-49
2023/12/28 03:15:48;;;;;;;4.43;2.70;;;5.60;58.50;;;0.79;93.53;95895.41;4989413;28;20029;-54
2023/12/28 03:18:14;;;;;;;3.95;2.58;;;5.60;58.60;;;0.82;94.20;95885.31;4984498;28;20034;-49
2023/12/28 03:20:40;;;;;;;2.92;2.03;;;5.60;58.70;;;0.82;94.57;95880.06;4978791;28;20610;-49
2023/12/28 03:23:06;;;;;;;3.42;2.10;;;5.60;58.70;;;0.80;94.33;95871.59;4982160;28;20103;-52
2023/12/28 03:25:32;;;;;;;3.63;2.13;;;5.60;58.70;;;0.86;94.88;95877.88;4990888;28;20788;-55
2023/12/28 03:27:58;;;;;;;4.55;2.42;;;5.70;58.70;;;0.88;93.86;95881.91;4975814;28;20220;-53
2023/12/28 03:30:23;;;;;;;3.70;2.47;;;5.60;58.70;;;0.86;93.95;95877.88;4981672;28;20036;-55
2023/12/28 03:32:49;;;;;;;3.65;2.65;;;5.70;58.80;;;0.90;93.99;95879.88;4985681;28;20018;-52
2023/12/28 03:35:15;;;;;;;4.10;2.42;;;5.60;58.80;;;1.01;94.02;95886.41;4974800;28;20065;-52
2023/12/28 03:37:41;;;;;;;5.22;2.85;;;5.70;58.90;;;1.10;93.73;95885.22;4986953;28;20040;-52
2023/12/28 03:40:08;;;;;;;4.90;2.60;;;5.70;59.00;;;1.14;93.00;95880.38;4975248;28;20312;-54
2023/12/28 03:42:33;;;;;;;7.53;2.92;;;5.80;59.00;;;1.19;92.95;95883.19;4979099;28;20116;-53
2023/12/28 03:44:59;;;;;;;5.80;2.60;;;5.80;59.00;;;1.06;92.97;95878.72;4972808;28;20164;-53
2023/12/28 03:47:25;;;;;;;3.92;2.78;;;5.80;59.00;;;1.08;93.68;95889.03;4986269;28;20026;-54
2023/12/28 03:49:51;;;;;;;5.03;2.90;;;5.80;58.90;;;0.97;93.83;95879.09;4985748;28;20127;-52
2023/12/28 03:52:17;;;;;;;5.50;2.97;;;5.80;58.80;;;0.92;94.37;95896.25;4978849;28;20132;-54
2023/12/28 03:54:42;;;;;;;5.07;3.00;;;5.80;58.80;;;0.91;94.37;95894.63;4979436;28;20124;-50
2023/12/28 03:57:08;;;;;;;6.40;3.05;;;5.80;59.40;;;0.76;95.36;95893.16;4976148;28;20057;-52
2023/12/28 03:59:34;;;;;;;4.97;2.90;;;5.70;58.80;;;0.68;97.01;95888.88;4973418;28;20034;-55
2023/12/28 04:02:00;;;;;;;7.10;2.70;;;5.70;58.80;;;0.58;97.86;95897.09;4982491;28;20041;-54
2023/12/28 04:04:26;;;;;;;3.90;2.70;;;5.70;58.80;;;0.56;97.50;95899.09;4971145;28;20030;-49
2023/12/28 04:06:51;;;;;;;6.07;3.35;;;5.60;58.80;;;0.48;97.97;95901.91;4984686;28;20053;-54
2023/12/28 04:09:17;;;;;;;4.55;2.78;;;5.60;58.90;;;0.49;99.65;95903.50;4990971;28;20086;-49
2023/12/28 04:11:43;;;;;;;4.35;2.67;;;5.50;59.00;;;0.49;99.06;95902.69;4987059;28;20018;-49
2023/12/28 04:14:09;;;;;;;7.18;3.10;;;5.50;59.10;;;0.45;99.92;95900.47;4978068;28;20030;-49
2023/12/28 04:16:35;;;;;;;7.95;3.65;;;5.40;59.10;;;0.54;100.00;95893.25;4974109;28;20084;-51
2023/12/28 04:19:01;;;;;;;5.32;3.13;;;5.40;59.30;;;0.50;100.00;95896.44;4979336;28;20026;-50
2023/12/28 04:21:26;;;;;;;5.32;3.35;;;5.40;59.40;;;0.45;99.71;95897.03;4987092;28;20528;-49
2023/12/28 04:23:52;;;;;;;7.88;3.35;;;5.40;59.50;;;0.43;100.00;95902.47;4979405;28;20037;-56
2023/12/28 04:26:21;;;;;;;4.63;3.15;;;5.40;59.50;;;0.45;99.95;95897.03;4990205;28;20040;-50
2023/12/28 04:28:47;;;;;;;5.85;3.38;;;5.40;59.50;;;0.42;99.88;95906.09;4990884;28;20014;-53
2023/12/28 04:31:13;;;;;;;7.32;3.47;;;5.40;60.10;;;0.41;100.00;95907.09;4976615;28;20081;-52
2023/12/28 04:33:39;;;;;;;7.07;3.63;;;5.30;59.50;;;0.36;100.00;95892.97;4970564;28;20022;-53
2023/12/28 04:36:05;;;;;;;6.15;3.33;;;5.30;59.60;;;0.35;100.00;95893.97;4971413;28;20053;-54
2023/12/28 04:38:32;;;;;;;4.88;3.13;;;5.30;59.60;;;0.31;100.00;95896.13;4990364;28;20036;-51
2023/12/28 04:41:01;;;;;;;5.03;3.15;;;5.30;59.60;;;0.26;100.00;95885.44;4971056;28;20608;-54
2023/12/28 04:43:27;;;;;;;5.68;3.50;;;5.30;59.60;;;0.14;100.00;95885.16;4988845;28;20099;-48
2023/12/28 04:45:53;;;;;;;6.22;3.60;;;5.20;59.60;;;0.07;100.00;95879.06;4988627;28;20049;-49
2023/12/28 04:48:20;;;;;;;7.10;3.08;;;5.20;59.70;;;0.03;100.00;95875.19;4989505;28;20110;-48
2023/12/28 04:50:48;;;;;;;5.85;3.55;;;5.10;59.70;;;-0.04;100.00;95877.78;4989977;28;20033;-48
2023/12/28 04:53:14;;;;;;;5.68;3.20;;;5.10;59.70;;;-0.02;100.00;95870.56;4989860;28;20049;-49
2023/12/28 04:55:40;;;;;;;6.40;3.38;;;5.00;59.80;;;-0.11;100.00;95870.88;4989214;28;20060;-49
2023/12/28 04:58:06;;;;;;;5.32;3.10;;;5.00;59.90;;;-0.17;100.00;95882.13;4990494;28;20053;-54
2023/12/28 05:00:32;;;;;;;7.45;3.95;;;5.00;59.90;;;-0.20;100.00;95877.25;4988629;28;20022;-53
2023/12/28 05:02:58;;;;;;;6.63;4.45;;;4.90;59.90;;;-0.16;100.00;95883.72;4990012;28;20080;-52
2023/12/28 05:05:23;;;;;;;6.28;4.18;;;4.90;60.10;;;-0.16;100.00;95889.78;4989823;28;20025;-52
2023/12/28 05:07:49;;;;;;;6.03;3.75;;;4.90;60.10;;;-0.16;100.00;95894.19;4989454;28;20033;-50
2023/12/28 05:10:15;;;;;;;5.65;3.47;;;4.80;60.30;;;-0.16;100.00;95888.97;4990312;28;20022;-54
2023/12/28 05:12:41;;;;;;;5.45;3.38;;;4.90;60.40;;;-0.22;100.00;95885.28;4981069;28;20106;-50
2023/12/28 05:15:08;;;;;;;5.63;3.42;;;4.80;60.40;;;-0.23;100.00;95886.28;4973867;28;20381;-49
2023/12/28 05:17:33;;;;;;;4.32;3.53;;;4.80;60.50;;;-0.20;100.00;95895.59;4987733;28;20026;-52
2023/12/28 05:19:59;;;;;;;5.93;3.58;;;4.80;60.60;;;-0.17;100.00;95890.78;4977316;28;20034;-55
2023/12/28 05:22:25;;;;;;;6.03;3.65;;;4.80;60.60;;;-0.17;100.00;95895.22;4982901;28;20377;-53
2023/12/28 05:24:51;;;;;;;6.50;3.88;;;4.80;60.70;;;-0.28;100.00;95879.03;4989120;28;20041;-55
2023/12/28 05:27:17;;;;;;;5.95;3.65;;;4.80;60.60;;;-0.31;100.00;95879.41;4990097;28;20100;-49
2023/12/28 05:29:42;;;;;;;7.07;3.83;;;4.80;60.70;;;-0.27;100.00;95877.22;4989765;28;20091;-49
2023/12/28 05:32:08;;;;;;;6.55;3.80;;;4.80;60.80;;;-0.28;100.00;95878.22;4990062;28;20025;-48
2023/12/28 05:34:34;;;;;;;7.72;3.97;;;4.70;60.70;;;-0.32;100.00;95880.38;4993041;28;20633;-52
2023/12/28 05:37:00;;;;;;;6.18;3.67;;;4.70;60.80;;;-0.31;100.00;95875.97;4992825;28;20026;-50
2023/12/28 05:39:26;;;;;;;4.40;3.20;;;4.70;60.90;;;-0.31;100.00;95889.06;4993590;28;20087;-53
2023/12/28 05:41:52;;;;;;;5.57;3.15;;;4.70;61.00;;;-0.32;100.00;95880.38;4983463;28;20504;-50
2023/12/28 05:44:17;;;;;;;4.82;3.00;;;4.70;61.20;;;-0.33;100.00;95873.53;4975504;28;20503;-51
2023/12/28 05:46:43;;;;;;;5.25;3.10;;;4.70;61.20;;;-0.36;100.00;95878.34;4974072;28;20046;-49
2023/12/28 05:49:09;;;;;;;5.88;3.65;;;4.70;61.20;;;-0.40;100.00;95885.78;4982526;28;20507;-50
2023/12/28 05:51:42;;;;;;;6.45;3.33;;;4.70;61.20;;;-0.44;100.00;95879.28;4993254;28;20034;-51
2023/12/28 05:54:08;;;;;;;4.20;2.75;;;4.70;61.20;;;-0.43;100.00;95886.16;4992279;28;20120;-49
2023/12/28 05:56:35;;;;;;;4.55;2.92;;;4.60;61.20;;;-0.41;100.00;95873.66;4976994;28;20493;-52
2023/12/28 05:59:01;;;;;;;4.68;3.10;;;4.60;61.30;;;-0.40;100.00;95871.88;4973743;28;20045;-51
2023/12/28 06:01:27;;;;;;;5.47;2.70;;;4.60;61.30;;;-0.28;100.00;95870.38;4985231;28;20025;-50
2023/12/28 06:03:54;;;;;;;4.38;2.58;;;4.60;61.50;;;-0.04;100.00;95875.16;4992574;28;20410;-48
2023/12/28 06:06:23;;;;;;;5.45;2.38;;;4.70;61.80;;;0.04;100.00;95874.22;4988190;28;20113;-48
2023/12/28 06:08:49;;;;;;;3.65;2.15;;;4.80;61.80;;;0.12;99.16;95879.28;4973876;28;20428;-53
2023/12/28 06:11:15;;;;;;;2.67;2.28;;;4.80;61.70;;;0.17;97.74;95871.69;4974624;28;20080;-52
2023/12/28 06:13:41;;;;;;;4.28;2.10;;;4.90;61.60;;;0.15;97.57;95876.28;4978450;28;20029;-49
2023/12/28 06:16:07;;;;;;;3.40;1.85;;;4.90;61.50;;;0.19;96.66;95868.88;4982354;28;20029;-51
2023/12/28 06:18:33;;;;;;;3.58;2.00;;;5.00;61.50;;;0.17;96.88;95874.28;4991805;28;20014;-51
2023/12/28 06:20:58;;;;;;;3.20;1.77;;;5.00;61.20;;;0.15;97.19;95872.88;4974887;28;20026;-49
2023/12/28 06:23:24;;;;;;;4.40;1.70;;;5.00;61.10;;;0.08;97.88;95872.81;4992196;28;20100;-48
2023/12/28 06:25:50;;;;;;;2.47;1.75;;;5.00;61.00;;;0.05;98.10;95873.22;4991932;28;20033;-49
2023/12/28 06:28:16;;;;;;;3.63;1.90;;;5.00;60.90;;;0.04;98.48;95871.59;4992829;28;20021;-48
2023/12/28 06:30:42;;;;;;;3.83;1.70;;;5.00;60.90;;;0.06;98.11;95872.19;4991561;28;20029;-49
2023/12/28 06:33:08;;;;;;;2.05;1.50;;;5.00;60.90;;;0.09;97.56;95869.19;4992042;28;20052;-52
2023/12/28 06:35:34;;;;;;;2.72;1.50;;;5.00;60.90;;;0.07;98.09;95871.22;4992606;28;20446;-49
2023/12/28 06:37:59;;;;;;;2.00;1.50;;;5.00;60.90;;;0.06;97.84;95872.19;4991623;28;20236;-49
2023/12/28 06:40:25;;;;;;;2.20;1.60;;;5.00;61.60;;;0.10;97.83;95877.88;4992471;28;20041;-52
2023/12/28 06:42:51;;;;;;;3.95;1.65;;;5.00;60.80;;;0.09;96.46;95873.63;4987017;28;20018;-55
2023/12/28 06:45:17;;;;;;;2.95;1.60;;;5.00;60.80;;;0.06;96.60;95876.63;4972379;28;20037;-49
2023/12/28 06:47:43;;;;;;;2.15;1.58;;;5.00;60.80;;;0.02;96.11;95878.03;4977753;28;20127;-48
2023/12/28 06:50:09;;;;;;;1.95;1.40;;;5.00;60.70;;;-0.01;96.99;95877.41;4984149;28;20038;-49
2023/12/28 06:52:35;;;;;;;2.70;1.35;;;5.00;60.70;;;-0.03;96.90;95878.63;4991658;28;20018;-49
2023/12/28 06:55:01;;;;;;;3.35;1.50;;;5.00;60.60;;;-0.07;95.78;95887.81;4987928;28;20021;-50
2023/12/28 06:57:27;;;;;;;3.38;1.50;;;5.00;60.60;;;0.01;95.66;95885.06;4981995;28;20491;-48
2023/12/28 06:59:52;;;;;;;1.35;1.05;;;5.00;60.70;;;0.08;94.19;95882.50;4989861;28;20405;-48
2023/12/28 07:02:18;;;;;;;3.53;1.40;;;5.00;60.70;;;0.11;94.72;95876.88;4980885;28;20026;-48
2023/12/28 07:04:44;;;;;;;2.15;1.27;;;5.00;60.60;;;0.06;94.93;95881.88;4984732;28;20025;-49
2023/12/28 07:07:10;;;;;;;1.92;1.30;;;5.00;60.50;;;-0.08;96.15;95888.84;5000388;28;20037;-50
2023/12/28 07:09:36;;;;;;;2.10;1.30;;;5.00;60.50;;;-0.06;96.66;95889.47;4978809;28;20125;-51
2023/12/28 07:12:02;;;;;;;1.70;1.40;;;4.90;60.40;;;-0.04;96.17;95890.06;4983802;28;20034;-49
2023/12/28 07:14:28;;;;;;;3.03;1.30;;;4.90;60.40;;;-0.11;96.06;95897.88;4974645;28;20109;-51
2023/12/28 07:16:53;;;;;;;1.48;1.10;;;5.00;60.50;;;-0.16;97.07;95896.81;4987207;28;20137;-51
2023/12/28 07:19:19;;;;;;;1.88;1.40;;;4.90;60.40;;;-0.13;96.63;95902.47;4986690;28;20022;-48
2023/12/28 07:21:45;;;;;;;4.03;1.00;;;4.90;60.50;;;-0.07;95.63;95906.97;4984123;28;20092;-48
2023/12/28 07:24:11;;;;;;;0.82;0.82;;;4.90;60.50;;;-0.04;96.31;95913.63;4972360;28;20124;-50
2023/12/28 07:26:37;;;;;;;1.38;1.15;;;4.90;60.50;;;-0.02;96.87;95915.06;4990255;28;20025;-51
2023/12/28 07:29:03;;;;;;;1.15;0.90;;;5.00;60.60;;;-0.03;97.06;95923.13;4991478;28;20082;-48
2023/12/28 07:31:31;;;;;;;3.45;1.30;;;5.00;60.50;;;-0.01;96.76;95919.31;4986494;28;20085;-50
2023/12/28 07:33:57;;;;;;;1.88;1.20;;;5.00;60.50;;;-0.02;97.06;95911.66;4990878;28;20026;-48
2023/12/28 07:36:23;;;;;;;2.35;1.40;;;5.10;60.50;;;-0.10;97.17;95912.59;4988470;28;20457;-57
2023/12/28 07:38:49;;;;;;;2.65;1.60;;;5.10;60.50;;;-0.06;96.76;95915.66;4982426;28;20109;-53
2023/12/28 07:41:15;;;;;;;3.03;1.90;;;5.10;60.50;;;0.01;96.61;95911.28;4982711;28;20061;-51
2023/12/28 07:43:41;;;;;;;2.72;1.77;;;5.10;60.40;;;-0.01;96.95;95910.63;4974463;28;20026;-48
2023/12/28 07:46:07;;;;;;;5.38;2.38;;;5.10;60.30;;;0.02;97.29;95910.25;4990907;28;20036;-53
2023/12/28 07:48:33;;;;;;;5.38;2.85;;;5.20;60.40;;;0.08;96.64;95906.88;4990397;28;20021;-53
2023/12/28 07:50:58;;;;;;;10.60;2.38;;;5.20;61.20;;;0.11;97.02;95906.50;4971987;28;20026;-48
2023/12/28 07:53:24;;;;;;;2.47;1.83;;;5.30;60.40;;;0.14;96.53;95911.34;4971508;28;20113;-52
2023/12/28 07:55:50;;;;;;;3.38;2.08;;;5.30;60.40;;;0.28;96.64;95909.63;5003518;28;20041;-57
2023/12/28 07:58:16;;;;;;;2.17;1.50;;;5.40;60.50;;;0.38;96.20;95902.25;4991184;28;20536;-52
2023/12/28 08:00:42;;;;;;;1.98;1.40;;;5.40;60.50;;;0.49;95.68;95906.13;4989994;28;20055;-48
2023/12/28 08:03:08;;;;;;;2.53;1.30;;;5.50;60.50;;;0.61;93.79;95899.34;4990641;28;20058;-50
2023/12/28 08:05:33;;;;;;;5.55;2.67;;;5.60;60.50;;;0.77;92.80;95907.88;4991002;28;20032;-55
2023/12/28 08:07:59;;;;;;;2.58;1.63;;;5.70;60.60;;;0.94;92.86;95911.81;4990029;28;20107;-49
2023/12/28 08:10:25;;;;;;;2.22;1.40;;;5.90;60.50;;;1.05;92.38;95905.16;5005875;28;20026;-49
2023/12/28 08:12:51;;;;;;;2.35;1.40;;;6.00;60.50;;;1.11;92.20;95907.81;4980321;28;20480;-52
2023/12/28 08:15:17;;;;;;;4.38;1.63;;;6.10;60.30;;;1.13;92.89;95902.38;4971685;28;20026;-51
2023/12/28 08:17:43;;;;;;;2.33;1.27;;;6.20;60.20;;;1.15;91.51;95916.09;4986546;28;20075;-53
2023/12/28 08:20:09;;;;;;;2.55;1.63;;;6.30;60.10;;;1.25;91.85;95916.53;4989651;28;20661;-51
2023/12/28 08:22:34;;;;;;;2.65;1.50;;;6.40;60.00;;;1.27;92.25;95917.16;4975925;28;20512;-52
2023/12/28 08:25:00;;;;;;;4.20;1.60;;;6.50;59.90;;;1.28;92.25;95915.31;4978708;28;20060;-49
2023/12/28 08:27:26;;;;;;;3.67;1.60;;;6.50;59.80;;;1.37;93.36;95909.69;4990459;28;20029;-50
2023/12/28 08:29:52;;;;;;;5.38;1.63;;;6.60;59.70;;;1.35;93.00;95903.84;4990329;28;20025;-51
2023/12/28 08:32:18;;;;;;;2.78;1.33;;;6.70;59.70;;;1.42;93.45;95901.22;4970922;28;20022;-49
2023/12/28 08:34:44;;;;;;;2.40;1.48;;;6.70;59.60;;;1.42;94.53;95903.88;4970961;28;20041;-51
2023/12/28 08:37:10;;;;;;;2.75;1.60;;;6.80;59.50;;;1.42;93.23;95909.13;4979801;28;20095;-50
2023/12/28 08:39:36;;;;;;;2.20;1.58;;;6.90;59.50;;;1.56;92.54;95905.47;4998421;28;20420;-52
2023/12/28 08:42:02;;;;;;;4.22;1.98;;;6.90;59.50;;;1.61;91.30;95894.41;4988911;28;20075;-55
2023/12/28 08:44:28;;;;;;;4.05;1.90;;;7.00;59.40;;;1.74;90.62;95898.84;4990082;28;20025;-52
2023/12/28 08:46:54;;;;;;;3.20;1.83;;;7.10;59.40;;;1.89;90.68;95898.66;4990118;28;20400;-52
2023/12/28 08:49:19;;;;;;;1.80;1.48;;;7.20;59.40;;;1.96;91.28;95904.72;4980004;28;20033;-49
2023/12/28 08:51:45;;;;;;;3.72;2.05;;;7.30;59.40;;;2.01;90.87;95907.56;4970927;28;20072;-50
2023/12/28 08:54:11;;;;;;;2.60;1.80;;;7.30;59.20;;;2.05;90.38;95906.94;4983350;28;20026;-54
2023/12/28 08:56:37;;;;;;;2.92;1.85;;;7.40;59.20;;;2.12;90.17;95909.56;4990020;28;20399;-49
2023/12/28 08:59:03;;;;;;;3.35;2.03;;;7.50;59.20;;;2.23;89.75;95892.38;4990011;28;20550;-51
2023/12/28 09:01:29;;;;;;;3.42;2.38;;;7.60;59.10;;;2.37;89.58;95893.16;5003808;28;20030;-50
2023/12/28 09:03:55;;;;;;;3.70;2.05;;;7.70;59.10;;;2.46;89.24;95892.72;4982875;28;20068;-54
2023/12/28 09:06:22;;;;;;;1.77;1.42;;;7.90;59.10;;;2.46;90.75;95902.44;4989180;28;20026;-54
2023/12/28 09:08:51;;;;;;;2.83;1.92;;;8.00;58.90;;;2.50;89.53;95903.63;4992339;28;20057;-52
2023/12/28 09:11:19;;;;;;;3.03;1.95;;;8.00;58.80;;;2.55;89.32;95914.34;4993058;28;20071;-53
2023/12/28 09:13:45;;;;;;;3.53;2.20;;;8.10;58.70;;;2.61;88.86;95933.78;4983254;28;20025;-50
2023/12/28 09:16:14;;;;;;;3.40;2.42;;;8.20;58.60;;;2.64;88.66;95928.91;4985729;28;20030;-49
2023/12/28 09:18:41;;;;;;;4.68;2.90;;;8.20;58.50;;;2.73;88.83;95942.66;4982152;28;20032;-52
2023/12/28 09:21:10;;;;;;;4.28;2.30;;;8.30;58.40;;;2.80;88.03;95940.00;4985680;28;20034;-52
2023/12/28 09:23:37;;;;;;;3.47;2.25;;;8.40;58.40;;;2.84;86.98;95939.38;4988997;28;20042;-53
2023/12/28 09:26:05;;;;;;;3.40;1.77;;;8.40;58.20;;;2.91;85.96;95926.97;5007960;28;20056;-54
2023/12/28 09:28:35;;;;;;;3.78;1.88;;;8.50;58.10;;;2.96;85.38;95927.19;4977241;28;20106;-54
2023/12/28 09:31:02;;;;;;;3.15;2.22;;;8.50;57.90;;;3.01;85.61;95935.28;4978531;28;20022;-54
2023/12/28 09:33:28;;;;;;;2.45;1.70;;;8.60;57.90;;;3.03;86.68;95927.16;4977280;28;20021;-53
2023/12/28 09:35:54;;;;;;;4.07;1.63;;;8.60;57.80;;;2.95;87.38;95927.41;4990658;28;20050;-55
2023/12/28 09:38:21;;;;;;;3.10;1.98;;;8.70;57.80;;;2.95;87.99;95941.38;4991577;28;20064;-56
2023/12/28 09:40:54;;;;;;;3.22;2.10;;;8.70;57.70;;;2.93;87.04;95932.06;4982308;28;20032;-50
2023/12/28 09:43:36;;;;;;;2.45;2.15;;;8.80;57.60;;;3.03;87.07;95929.78;4974949;28;20030;-58
2023/12/28 09:46:07;;;;;;;4.07;2.40;;;8.80;57.50;;;3.10;87.53;95927.94;5005073;28;20172;-55
2023/12/28 09:48:36;;;;;;;3.13;1.88;;;8.80;57.60;;;3.12;88.32;95933.00;4990121;28;20117;-57
2023/12/28 09:51:02;;;;;;;3.88;2.15;;;8.80;57.60;;;3.12;87.75;95931.16;5018486;23;20057;-51
2023/12/28 09:53:29;;;;;;;3.60;2.30;;;8.80;57.50;;;3.12;88.54;95943.53;5000581;28;20045;-51
2023/12/28 09:55:55;;;;;;;3.78;2.10;;;8.80;57.50;;;3.14;87.89;95942.31;5007516;28;20480;-50
2023/12/28 09:58:22;;;;;;;3.42;2.20;;;8.80;57.50;;;3.16;89.36;95940.25;5006488;28;20399;-54
2023/12/28 10:00:50;;;;;;;3.50;2.45;;;8.90;57.50;;;3.15;89.18;95933.38;5002823;28;20033;-54
2023/12/28 10:03:18;;;;;;;4.05;2.10;;;8.90;57.50;;;3.15;87.47;95933.38;4977263;28;20033;-49
2023/12/28 10:05:46;;;;;;;3.45;2.22;;;8.90;57.50;;;3.22;89.39;95933.34;4979882;28;20492;-49
2023/12/28 10:08:16;;;;;;;3.65;2.55;;;8.90;57.50;;;3.27;88.50;95932.75;4984749;28;20069;-50
2023/12/28 10:10:50;;;;;;;3.92;2.30;;;8.90;57.40;;;3.25;88.49;95936.38;4979154;28;20046;-54
2023/12/28 10:13:17;;;;;;;3.95;2.10;;;8.90;57.40;;;3.24;88.55;95928.69;4982701;28;20029;-49
2023/12/28 10:15:44;;;;;;;3.13;2.15;;;9.00;57.40;;;3.28;88.53;95923.81;4978681;28;20038;-55
2023/12/28 10:18:10;;;;;;;3.00;1.77;;;9.00;57.40;;;3.22;89.39;95922.81;4976465;28;20033;-55
2023/12/28 10:20:36;;;;;;;3.42;2.15;;;9.00;57.30;;;3.21;88.79;95915.94;4978822;28;20038;-49
2023/12/28 10:23:02;;;;;;;6.78;2.92;;;9.00;57.30;;;3.32;90.24;95920.56;4985920;28;20511;-50
2023/12/28 10:25:31;;;;;;;6.97;3.80;;;9.10;57.40;;;3.33;90.61;95916.91;4983169;28;20030;-50
2023/12/28 10:27:57;;;;;;;6.68;4.18;;;9.10;57.40;;;3.33;88.27;95913.47;4975609;28;20080;-54